createdAt,value
2019-01-26T00:02:26.373Z,98323.52
2019-01-26T00:11:26.906Z,98332.86
2019-01-26T00:13:57.243Z,98327.73
2019-01-26T00:16:27.624Z,98322.25
2019-01-26T00:18:58.126Z,98319.73
2019-01-26T00:21:28.420Z,98319.57
2019-01-26T00:24:17.649Z,98325.21
2019-01-26T00:26:48.015Z,98312.39
2019-01-26T00:29:18.417Z,98300.20
2019-01-26T00:34:55.595Z,98288.91
2019-01-26T00:37:25.990Z,98278.41
2019-01-26T00:39:56.355Z,98279.02
2019-01-26T00:42:27.573Z,98266.39
2019-01-26T00:44:57.841Z,98264.44
2019-01-26T00:47:28.149Z,98256.14
2019-01-26T00:52:54.122Z,98247.81
2019-01-26T00:55:24.396Z,98238.02
2019-01-26T00:57:54.689Z,98234.38
2019-01-26T01:00:25.081Z,98228.02
2019-01-26T01:02:55.442Z,98233.29
2019-01-26T01:05:25.733Z,98217.35
2019-01-26T01:07:56.063Z,98198.94
2019-01-26T01:13:36.577Z,98193.16
2019-01-26T01:16:18.606Z,98170.70
2019-01-26T01:18:48.959Z,98168.31
2019-01-26T01:21:19.191Z,98167.68
2019-01-26T01:23:49.486Z,98160.29
2019-01-26T01:26:20.030Z,98137.25
2019-01-26T01:28:50.308Z,98124.47
2019-01-26T01:31:20.660Z,98124.55
2019-01-26T01:34:04.835Z,98115.32
2019-01-26T01:39:17.747Z,98109.00
2019-01-26T01:41:47.998Z,98110.00
2019-01-26T01:44:37.469Z,98108.25
2019-01-26T01:47:07.895Z,98087.59
2019-01-26T01:49:38.319Z,98080.47
2019-01-26T01:52:10.655Z,98079.97
2019-01-26T01:55:18.878Z,98076.38
2019-01-26T01:57:49.270Z,98049.78
2019-01-26T02:03:04.939Z,98048.66
2019-01-26T02:05:35.253Z,98035.93
2019-01-26T02:08:05.583Z,98032.39
2019-01-26T02:13:34.113Z,98022.86
2019-01-26T02:16:24.726Z,98007.69
2019-01-26T02:21:58.928Z,98012.20
2019-01-26T02:24:29.375Z,98003.14
2019-01-26T02:26:59.709Z,97999.86
2019-01-26T02:33:04.829Z,97998.48
2019-01-26T02:35:35.183Z,97985.15
2019-01-26T02:38:05.545Z,97966.50
2019-01-26T02:40:35.810Z,97971.72
2019-01-26T02:45:50.236Z,97968.91
2019-01-26T02:48:20.566Z,97970.20
2019-01-26T02:50:50.944Z,97970.45
2019-01-26T02:53:21.280Z,97949.30
2019-01-26T02:55:51.652Z,97955.31
2019-01-26T02:58:22.318Z,97946.41
2019-01-26T03:00:52.911Z,97949.63
2019-01-26T03:03:23.207Z,97956.16
2019-01-26T03:05:53.800Z,97952.16
2019-01-26T03:08:24.121Z,97948.02
2019-01-26T03:10:56.237Z,97942.95
2019-01-26T03:13:26.585Z,97944.59
2019-01-26T03:15:57.022Z,97944.38
2019-01-26T03:18:27.262Z,97941.83
2019-01-26T03:20:57.593Z,97933.55
2019-01-26T03:23:27.885Z,97927.66
2019-01-26T03:31:44.157Z,97900.91
2019-01-26T03:34:14.518Z,97906.45
2019-01-26T03:36:44.799Z,97914.03
2019-01-26T03:42:23.407Z,97889.58
2019-01-26T03:44:53.736Z,97885.84
2019-01-26T03:47:26.726Z,97872.02
2019-01-26T03:49:57.036Z,97864.73
2019-01-26T03:52:27.345Z,97864.41
2019-01-26T03:54:57.632Z,97863.00
2019-01-26T03:57:27.983Z,97870.70
2019-01-26T03:59:58.357Z,97871.44
2019-01-26T04:05:21.848Z,97860.10
2019-01-26T04:07:52.364Z,97860.39
2019-01-26T04:13:59.698Z,97861.03
2019-01-26T04:16:30.052Z,97848.25
2019-01-26T04:19:00.343Z,97845.01
2019-01-26T04:21:30.630Z,97847.58
2019-01-26T04:24:07.045Z,97841.96
2019-01-26T04:26:37.407Z,97743.69
2019-01-26T04:29:07.649Z,97841.55
2019-01-26T04:31:38.071Z,97844.48
2019-01-26T04:37:15.364Z,97836.98
2019-01-26T04:39:48.123Z,97838.10
2019-01-26T04:42:20.513Z,97832.92
2019-01-26T04:44:50.804Z,97836.83
2019-01-26T04:47:21.341Z,97826.84
2019-01-26T04:49:52.001Z,97829.39
2019-01-26T04:52:35.257Z,97830.95
2019-01-26T04:57:49.488Z,97835.41
2019-01-26T05:00:28.536Z,97823.48
2019-01-26T05:02:59.282Z,97825.41
2019-01-26T05:05:29.603Z,97829.61
2019-01-26T05:07:59.936Z,97828.32
2019-01-26T05:10:30.311Z,97813.13
2019-01-26T05:13:00.568Z,97815.17
2019-01-26T05:15:31.120Z,97810.12
2019-01-26T05:18:01.758Z,97812.73
2019-01-26T05:20:32.286Z,97816.19
2019-01-26T05:23:02.602Z,97823.20
2019-01-26T05:25:58.723Z,97817.70
2019-01-26T05:28:29.342Z,97815.68
2019-01-26T05:30:59.717Z,97807.35
2019-01-26T05:33:30.904Z,97808.89
2019-01-26T05:36:01.355Z,97797.12
2019-01-26T05:38:31.595Z,97803.67
2019-01-26T05:41:02.030Z,97803.20
2019-01-26T05:43:32.333Z,97798.43
2019-01-26T05:46:02.605Z,97798.14
2019-01-26T05:48:32.934Z,97798.72
2019-01-26T05:53:59.629Z,97792.48
2019-01-26T05:56:48.332Z,97784.95
2019-01-26T05:59:18.619Z,97789.07
2019-01-26T06:02:07.882Z,97788.31
2019-01-26T06:04:38.180Z,97784.71
2019-01-26T06:07:08.549Z,97780.72
2019-01-26T06:09:39.011Z,97786.83
2019-01-26T06:15:15.581Z,97786.08
2019-01-26T06:17:46.061Z,97780.58
2019-01-26T06:20:16.503Z,97782.37
2019-01-26T06:22:47.168Z,97784.99
2019-01-26T06:25:18.018Z,97776.63
2019-01-26T06:27:48.615Z,97776.41
2019-01-26T06:30:39.389Z,97766.73
2019-01-26T06:33:09.674Z,97768.58
2019-01-26T06:35:39.943Z,97774.87
2019-01-26T06:38:10.271Z,97772.49
2019-01-26T06:40:59.651Z,97759.19
2019-01-26T06:43:30.005Z,97754.20
2019-01-26T06:46:00.277Z,97759.73
2019-01-26T06:48:30.527Z,97764.97
2019-01-26T06:51:00.869Z,97768.15
2019-01-26T06:53:31.123Z,97756.88
2019-01-26T06:56:01.379Z,97754.52
2019-01-26T07:01:26.619Z,97750.63
2019-01-26T07:03:57.002Z,97760.31
2019-01-26T07:10:09.235Z,97754.28
2019-01-26T07:12:39.818Z,97762.17
2019-01-26T07:15:11.309Z,97762.42
2019-01-26T07:17:41.517Z,97755.63
2019-01-26T07:20:12.028Z,97761.40
2019-01-26T07:22:42.320Z,97753.27
2019-01-26T07:25:12.666Z,97757.47
2019-01-26T07:27:43.011Z,97758.52
2019-01-26T07:30:15.355Z,97757.20
2019-01-26T07:43:44.795Z,97764.05
2019-01-26T07:46:15.043Z,97755.41
2019-01-26T07:48:45.392Z,97760.41
2019-01-26T07:51:15.722Z,97759.60
2019-01-26T07:53:47.325Z,97760.94
2019-01-26T07:56:31.448Z,97755.95
2019-01-26T07:59:01.724Z,97769.31
2019-01-26T08:04:27.607Z,97759.09
2019-01-26T08:06:57.897Z,97748.62
2019-01-26T08:09:28.192Z,97745.50
2019-01-26T08:11:58.517Z,97742.09
2019-01-26T08:14:28.707Z,97750.20
2019-01-26T08:16:58.943Z,97745.75
2019-01-26T08:19:29.204Z,97749.95
2019-01-26T08:24:50.428Z,97742.36
2019-01-26T08:27:20.790Z,97736.07
2019-01-26T08:29:51.113Z,97732.39
2019-01-26T08:32:21.424Z,97740.52
2019-01-26T08:34:51.670Z,97736.34
2019-01-26T08:37:21.994Z,97732.41
2019-01-26T08:39:52.244Z,97741.05
2019-01-26T08:42:22.477Z,97733.97
2019-01-26T08:47:40.432Z,97735.30
2019-01-26T08:50:21.838Z,97731.34
2019-01-26T08:52:53.135Z,97737.89
2019-01-26T08:55:23.606Z,97739.21
2019-01-26T08:57:53.987Z,97735.55
2019-01-26T09:00:26.389Z,97739.20
2019-01-26T09:03:15.926Z,97743.92
2019-01-26T09:06:06.233Z,97742.09
2019-01-26T09:08:36.440Z,97741.30
2019-01-26T09:11:06.904Z,97741.58
2019-01-26T09:13:37.193Z,97741.05
2019-01-26T09:16:07.562Z,97742.62
2019-01-26T09:18:43.901Z,97744.19
2019-01-26T09:21:14.221Z,97738.15
2019-01-26T09:23:58.051Z,97748.89
2019-01-26T09:26:28.365Z,97741.55
2019-01-26T09:32:00.743Z,97741.03
2019-01-26T09:34:31.098Z,97743.93
2019-01-26T09:37:01.571Z,97735.27
2019-01-26T09:45:28.896Z,97736.33
2019-01-26T09:47:59.269Z,97734.47
2019-01-26T09:50:29.623Z,97732.39
2019-01-26T09:53:00.229Z,97739.46
2019-01-26T10:01:17.545Z,97735.02
2019-01-26T10:03:49.430Z,97736.05
2019-01-26T10:12:06.984Z,97733.40
2019-01-26T10:14:39.206Z,97736.84
2019-01-26T10:17:09.551Z,97734.22
2019-01-26T10:19:40.079Z,97736.56
2019-01-26T10:25:12.897Z,97733.43
2019-01-26T10:27:43.160Z,97724.50
2019-01-26T10:30:37.450Z,97714.84
2019-01-26T10:33:07.695Z,97723.20
2019-01-26T10:35:57.237Z,97727.16
2019-01-26T10:38:27.599Z,97733.16
2019-01-26T10:41:16.854Z,97736.30
2019-01-26T10:44:06.484Z,97731.33
2019-01-26T10:46:37.029Z,97728.67
2019-01-26T10:49:07.320Z,97723.70
2019-01-26T10:51:37.589Z,97721.36
2019-01-26T10:54:26.773Z,97714.77
2019-01-26T10:56:57.127Z,97716.13
2019-01-26T10:59:33.265Z,97715.33
2019-01-26T11:04:51.139Z,97708.72
2019-01-26T11:10:06.360Z,97710.02
2019-01-26T11:15:26.226Z,97702.98
2019-01-26T11:17:56.687Z,97701.08
2019-01-26T11:20:26.951Z,97704.21
2019-01-26T11:22:57.735Z,97694.45
2019-01-26T11:25:46.028Z,97693.72
2019-01-26T11:28:16.466Z,97694.01
2019-01-26T11:30:46.860Z,97693.98
2019-01-26T11:33:17.120Z,97691.11
2019-01-26T11:35:47.461Z,97680.59
2019-01-26T11:38:17.747Z,97679.32
2019-01-26T11:40:48.107Z,97681.19
2019-01-26T11:46:33.223Z,97674.63
2019-01-26T11:49:04.195Z,97669.09
2019-01-26T11:51:53.413Z,97666.70
2019-01-26T11:54:23.716Z,97667.56
2019-01-26T12:00:19.210Z,97659.59
2019-01-26T12:05:51.479Z,97642.86
2019-01-26T12:08:21.750Z,97644.39
2019-01-26T12:13:39.138Z,97642.86
2019-01-26T12:16:10.177Z,97643.89
2019-01-26T12:18:40.462Z,97644.38
2019-01-26T12:21:12.767Z,97639.04
2019-01-26T12:23:43.047Z,97635.40
2019-01-26T12:29:11.623Z,97633.30
2019-01-26T12:31:41.844Z,97627.22
2019-01-26T12:34:12.151Z,97619.03
2019-01-26T12:36:42.386Z,97626.42
2019-01-26T12:39:12.779Z,97625.27
2019-01-26T12:41:43.144Z,97624.81
2019-01-26T12:44:13.494Z,97626.68
2019-01-26T12:46:43.746Z,97615.98
2019-01-26T12:49:14.045Z,97621.21
2019-01-26T12:51:50.656Z,97613.75
2019-01-26T12:54:20.961Z,97613.63
2019-01-26T12:56:51.216Z,97608.26
2019-01-26T12:59:21.410Z,97609.38
2019-01-26T13:01:52.736Z,97603.23
2019-01-26T13:04:23.047Z,97601.27
2019-01-26T13:10:03.864Z,97599.45
2019-01-26T13:12:34.160Z,97598.71
2019-01-26T13:15:04.963Z,97595.75
2019-01-26T13:17:35.198Z,97590.99
2019-01-26T13:23:08.707Z,97593.48
2019-01-26T13:28:30.343Z,97591.63
2019-01-26T13:31:00.568Z,97588.22
2019-01-26T13:33:30.912Z,97585.30
2019-01-26T13:36:01.174Z,97581.67
2019-01-26T13:38:31.404Z,97583.80
2019-01-26T13:43:57.261Z,97583.88
2019-01-26T13:46:27.536Z,97582.85
2019-01-26T13:48:57.752Z,97581.20
2019-01-26T13:51:27.942Z,97578.07
2019-01-26T13:53:58.174Z,97582.29
2019-01-26T13:56:28.391Z,97579.78
2019-01-26T13:58:58.643Z,97578.23
2019-01-26T14:01:29.078Z,97578.81
2019-01-26T14:03:59.305Z,97578.52
2019-01-26T14:06:29.521Z,97572.78
2019-01-26T14:08:59.742Z,97573.61
2019-01-26T14:11:30.020Z,97574.92
2019-01-26T14:14:00.239Z,97573.50
2019-01-26T14:19:25.994Z,97566.92
2019-01-26T14:21:56.275Z,97568.47
2019-01-26T14:24:26.622Z,97572.91
2019-01-26T14:26:56.841Z,97577.69
2019-01-26T14:29:40.795Z,97569.45
2019-01-26T14:32:11.095Z,97569.22
2019-01-26T14:34:41.364Z,97570.27
2019-01-26T14:37:11.571Z,97570.77
2019-01-26T14:39:41.773Z,97563.89
2019-01-26T14:42:12.006Z,97567.09
2019-01-26T14:44:44.615Z,97565.78
2019-01-26T14:47:14.926Z,97575.02
2019-01-26T14:52:27.877Z,97574.47
2019-01-26T14:54:58.192Z,97571.80
2019-01-26T14:57:28.424Z,97565.44
2019-01-26T14:59:58.652Z,97569.87
2019-01-26T15:02:28.884Z,97566.27
2019-01-26T15:04:59.159Z,97563.59
2019-01-26T15:07:53.577Z,97562.19
2019-01-26T15:10:23.757Z,97566.70
2019-01-26T15:12:53.995Z,97562.00
2019-01-26T15:18:34.631Z,97554.09
2019-01-26T15:24:07.091Z,97554.06
2019-01-26T15:26:37.363Z,97559.03
2019-01-26T15:29:07.649Z,97552.41
2019-01-26T15:31:50.214Z,97556.80
2019-01-26T15:34:20.415Z,97556.50
2019-01-26T15:36:50.714Z,97555.55
2019-01-26T15:39:21.144Z,97556.97
2019-01-26T15:41:51.420Z,97555.28
2019-01-26T15:44:21.640Z,97565.52
2019-01-26T15:46:51.923Z,97560.23
2019-01-26T15:49:22.199Z,97557.83
2019-01-26T15:51:52.446Z,97559.63
2019-01-26T15:54:24.947Z,97555.16
2019-01-26T15:56:55.223Z,97562.83
2019-01-26T15:59:25.900Z,97562.03
2019-01-26T16:01:56.338Z,97558.22
2019-01-26T16:04:29.063Z,97565.91
2019-01-26T16:06:59.290Z,97567.00
2019-01-26T16:09:29.554Z,97570.41
2019-01-26T16:14:59.494Z,97568.48
2019-01-26T16:17:29.718Z,97561.84
2019-01-26T16:19:59.989Z,97561.20
2019-01-26T16:22:30.297Z,97561.44
2019-01-26T16:25:01.455Z,97553.75
2019-01-26T16:27:31.772Z,97560.87
2019-01-26T16:30:02.045Z,97561.63
2019-01-26T16:32:46.637Z,97566.67
2019-01-26T16:35:16.926Z,97565.86
2019-01-26T16:37:47.225Z,97565.00
2019-01-26T16:40:20.132Z,97565.02
2019-01-26T16:42:50.643Z,97552.94
2019-01-26T16:45:23.314Z,97556.83
2019-01-26T16:47:53.663Z,97554.73
2019-01-26T16:50:27.673Z,97558.69
2019-01-26T16:53:03.797Z,97552.67
2019-01-26T16:55:34.019Z,97547.05
2019-01-26T16:58:06.950Z,97553.39
2019-01-26T17:00:58.228Z,97545.20
2019-01-26T17:03:28.647Z,97549.69
2019-01-26T17:05:58.919Z,97553.89
2019-01-26T17:08:29.186Z,97549.31
2019-01-26T17:10:59.590Z,97548.53
2019-01-26T17:13:30.230Z,97550.77
2019-01-26T17:19:05.747Z,97554.37
2019-01-26T17:21:36.460Z,97555.16
2019-01-26T17:24:06.771Z,97552.70
2019-01-26T17:26:55.992Z,97549.37
2019-01-26T17:29:26.297Z,97550.63
2019-01-26T17:31:56.660Z,97555.49
2019-01-26T17:34:30.404Z,97556.05
2019-01-26T17:37:18.619Z,97551.71
2019-01-26T17:39:48.913Z,97564.85
2019-01-26T17:42:19.222Z,97557.59
2019-01-26T17:44:49.430Z,97570.02
2019-01-26T17:47:19.919Z,97564.27
2019-01-26T17:49:50.242Z,97568.11
2019-01-26T17:52:20.564Z,97561.30
2019-01-26T17:54:50.812Z,97557.45
2019-01-26T17:57:21.064Z,97559.12
2019-01-26T18:02:36.654Z,97559.67
2019-01-26T18:05:08.484Z,97556.02
2019-01-26T18:07:38.781Z,97561.00
2019-01-26T18:10:12.567Z,97554.07
2019-01-26T18:12:42.845Z,97550.39
2019-01-26T18:15:13.981Z,97553.63
2019-01-26T18:17:44.873Z,97560.17
2019-01-26T18:25:44.287Z,97553.23
2019-01-26T18:31:04.074Z,97556.03
2019-01-26T18:33:34.401Z,97545.69
2019-01-26T18:36:17.456Z,97550.86
2019-01-26T18:38:47.757Z,97547.00
2019-01-26T18:41:18.040Z,97544.13
2019-01-26T18:43:48.367Z,97546.16
2019-01-26T18:46:18.642Z,97546.04
2019-01-26T18:48:48.923Z,97541.48
2019-01-26T18:54:25.866Z,97547.70
2019-01-26T18:59:37.785Z,97543.76
2019-01-26T19:02:14.673Z,97542.30
2019-01-26T19:05:06.288Z,97543.14
2019-01-26T19:07:36.584Z,97544.69
2019-01-26T19:10:07.499Z,97536.80
2019-01-26T19:15:23.206Z,97539.17
2019-01-26T19:17:53.475Z,97531.39
2019-01-26T19:20:23.806Z,97530.05
2019-01-26T19:23:14.423Z,97530.92
2019-01-26T19:25:45.404Z,97531.31
2019-01-26T19:28:15.710Z,97521.55
2019-01-26T19:30:46.023Z,97525.23
2019-01-26T19:36:18.931Z,97519.86
2019-01-26T19:38:49.389Z,97517.88
2019-01-26T19:41:19.701Z,97527.42
2019-01-26T19:46:45.071Z,97525.30
2019-01-26T19:49:15.409Z,97518.98
2019-01-26T19:51:58.762Z,97515.09
2019-01-26T19:54:29.107Z,97514.60
2019-01-26T19:56:59.384Z,97512.65
2019-01-26T19:59:30.609Z,97506.87
2019-01-26T20:11:21.902Z,97509.76
2019-01-26T20:19:47.298Z,97499.16
2019-01-26T20:22:38.073Z,97499.95
2019-01-26T20:28:05.203Z,97508.70
2019-01-26T20:34:00.558Z,97506.45
2019-01-26T20:36:31.037Z,97506.66
2019-01-26T20:39:01.444Z,97502.87
2019-01-26T20:41:33.272Z,97505.52
2019-01-26T20:44:03.543Z,97500.32
2019-01-26T20:46:33.795Z,97502.69
2019-01-26T20:49:04.151Z,97498.71
2019-01-26T20:51:34.433Z,97503.77
2019-01-26T20:56:47.784Z,97506.83
2019-01-26T21:02:19.940Z,97485.83
2019-01-26T21:04:50.166Z,97490.56
2019-01-26T21:07:20.673Z,97494.45
2019-01-26T21:18:08.004Z,97482.58
2019-01-26T21:20:38.303Z,97481.59
2019-01-26T21:23:08.559Z,97482.52
2019-01-26T21:25:45.318Z,97483.37
2019-01-26T21:28:15.942Z,97484.00
2019-01-26T21:30:46.341Z,97484.16
2019-01-26T21:36:12.029Z,97480.34
2019-01-26T21:38:42.555Z,97477.13
2019-01-26T21:41:13.011Z,97482.19
2019-01-26T21:43:43.309Z,97480.88
2019-01-26T21:46:13.552Z,97478.24
2019-01-26T21:48:43.824Z,97480.21
2019-01-26T21:57:07.859Z,97472.06
2019-01-26T21:59:38.102Z,97469.36
2019-01-26T22:04:51.499Z,97463.68
2019-01-26T22:07:21.802Z,97452.31
2019-01-26T22:09:52.108Z,97454.11
2019-01-26T22:12:22.332Z,97450.56
2019-01-26T22:14:53.026Z,97445.00
2019-01-26T22:17:23.232Z,97445.47
2019-01-26T22:19:53.505Z,97440.24
2019-01-26T22:28:09.275Z,97425.64
2019-01-26T22:30:39.577Z,97422.19
2019-01-26T22:33:09.992Z,97417.89
2019-01-26T22:35:40.258Z,97414.27
2019-01-26T22:38:10.528Z,97411.28
2019-01-26T22:40:57.484Z,97410.42
2019-01-26T22:43:27.731Z,97421.02
2019-01-26T22:45:58.042Z,97407.67
2019-01-26T22:48:28.294Z,97408.55
2019-01-26T22:51:13.676Z,97404.86
2019-01-26T22:53:43.931Z,97396.06
2019-01-26T22:56:14.197Z,97395.65
2019-01-26T22:58:44.522Z,97390.77
2019-01-26T23:05:07.014Z,97387.81
2019-01-26T23:08:01.932Z,97390.28
2019-01-26T23:11:12.124Z,97387.52
2019-01-26T23:14:21.597Z,97380.08
2019-01-26T23:17:30.228Z,97373.31
2019-01-26T23:20:25.980Z,97375.03
2019-01-26T23:23:28.696Z,97371.09
2019-01-26T23:26:38.581Z,97371.92
2019-01-26T23:29:47.216Z,97371.17
2019-01-26T23:32:17.450Z,97367.67
2019-01-26T23:37:29.698Z,97363.13
2019-01-26T23:42:49.606Z,97355.38
2019-01-26T23:45:19.943Z,97356.55
2019-01-26T23:47:50.227Z,97352.41
2019-01-26T23:50:20.475Z,97347.76
2019-01-26T23:52:50.708Z,97348.22
2019-01-26T23:55:21.009Z,97337.55
2019-01-26T23:57:51.220Z,97334.48
